sensor_id;sensor_type;location;lat;lon;timestamp;pressure;altitude;pressure_sealevel;temperature;humidity
6028;BME280;3042;43.194;27.646;2023-03-14T00:02:32;102269.00;;;8.00;100.00
6028;BME280;3042;43.194;27.646;2023-03-14T00:04:59;102256.78;;;7.98;100.00
6028;BME280;3042;43.194;27.646;2023-03-14T00:07:27;102247.88;;;7.82;100.00
6028;BME280;3042;43.194;27.646;2023-03-14T00:09:59;102260.22;;;7.87;99.90
6028;BME280;3042;43.194;27.646;2023-03-14T00:12:26;102262.66;;;7.85;100.00
6028;BME280;3042;43.194;27.646;2023-03-14T00:14:53;102261.03;;;7.75;99.78
6028;BME280;3042;43.194;27.646;2023-03-14T00:17:20;102252.03;;;7.70;100.00
6028;BME280;3042;43.194;27.646;2023-03-14T00:19:49;102243.97;;;7.88;100.00
6028;BME280;3042;43.194;27.646;2023-03-14T00:22:22;102248.91;;;7.74;100.00
6028;BME280;3042;43.194;27.646;2023-03-14T00:24:50;102243.59;;;7.83;100.00
6028;BME280;3042;43.194;27.646;2023-03-14T00:27:17;102238.16;;;7.68;99.82
6028;BME280;3042;43.194;27.646;2023-03-14T00:29:44;102241.38;;;7.66;99.96
6028;BME280;3042;43.194;27.646;2023-03-14T00:32:11;102227.13;;;7.59;100.00
6028;BME280;3042;43.194;27.646;2023-03-14T00:34:38;102222.91;;;7.49;100.00
6028;BME280;3042;43.194;27.646;2023-03-14T00:37:06;102216.84;;;7.59;100.00
6028;BME280;3042;43.194;27.646;2023-03-14T00:39:33;102215.72;;;7.45;100.00
6028;BME280;3042;43.194;27.646;2023-03-14T00:42:00;102211.09;;;7.41;100.00
6028;BME280;3042;43.194;27.646;2023-03-14T00:44:27;102211.34;;;7.44;100.00
6028;BME280;3042;43.194;27.646;2023-03-14T00:46:54;102198.59;;;7.46;100.00
6028;BME280;3042;43.194;27.646;2023-03-14T00:49:22;102202.50;;;7.40;100.00
6028;BME280;3042;43.194;27.646;2023-03-14T00:51:49;101994.81;;;6.40;100.00
6028;BME280;3042;43.194;27.646;2023-03-14T00:54:18;102183.69;;;7.52;100.00
6028;BME280;3042;43.194;27.646;2023-03-14T00:56:45;102188.38;;;7.35;100.00
6028;BME280;3042;43.194;27.646;2023-03-14T00:59:12;102185.38;;;7.41;100.00
6028;BME280;3042;43.194;27.646;2023-03-14T01:01:39;102051.59;;;6.75;100.00
6028;BME280;3042;43.194;27.646;2023-03-14T01:04:07;102179.81;;;7.47;100.00
6028;BME280;3042;43.194;27.646;2023-03-14T01:06:34;102044.16;;;6.58;100.00
6028;BME280;3042;43.194;27.646;2023-03-14T01:09:02;102181.91;;;7.40;100.00
6028;BME280;3042;43.194;27.646;2023-03-14T01:11:33;102190.28;;;7.38;100.00
6028;BME280;3042;43.194;27.646;2023-03-14T01:14:01;102193.09;;;6.98;100.00
6028;BME280;3042;43.194;27.646;2023-03-14T01:16:31;102175.13;;;6.78;100.00
6028;BME280;3042;43.194;27.646;2023-03-14T01:18:58;102185.13;;;6.85;100.00
6028;BME280;3042;43.194;27.646;2023-03-14T01:21:26;102180.50;;;6.91;100.00
6028;BME280;3042;43.194;27.646;2023-03-14T01:23:55;102158.19;;;6.70;100.00
6028;BME280;3042;43.194;27.646;2023-03-14T01:26:24;102189.13;;;6.61;100.00
6028;BME280;3042;43.194;27.646;2023-03-14T01:28:54;102183.88;;;6.70;100.00
6028;BME280;3042;43.194;27.646;2023-03-14T01:31:22;102178.97;;;6.52;100.00
6028;BME280;3042;43.194;27.646;2023-03-14T01:33:50;102202.59;;;6.38;100.00
6028;BME280;3042;43.194;27.646;2023-03-14T01:36:17;102196.69;;;6.29;100.00
6028;BME280;3042;43.194;27.646;2023-03-14T01:38:44;102189.75;;;6.38;100.00
6028;BME280;3042;43.194;27.646;2023-03-14T01:41:13;102183.88;;;6.49;100.00
6028;BME280;3042;43.194;27.646;2023-03-14T01:43:40;102186.94;;;6.45;100.00
6028;BME280;3042;43.194;27.646;2023-03-14T01:46:25;102178.47;;;6.67;100.00
6028;BME280;3042;43.194;27.646;2023-03-14T01:48:56;102184.13;;;6.52;100.00
6028;BME280;3042;43.194;27.646;2023-03-14T01:51:27;102189.91;;;6.50;100.00
6028;BME280;3042;43.194;27.646;2023-03-14T01:54:01;102187.84;;;6.56;100.00
6028;BME280;3042;43.194;27.646;2023-03-14T01:56:30;102186.03;;;6.45;100.00
6028;BME280;3042;43.194;27.646;2023-03-14T01:58:59;102190.78;;;6.40;100.00
6028;BME280;3042;43.194;27.646;2023-03-14T02:01:29;102185.28;;;6.36;100.00
6028;BME280;3042;43.194;27.646;2023-03-14T02:03:59;102189.88;;;6.29;100.00
6028;BME280;3042;43.194;27.646;2023-03-14T02:06:33;102167.16;;;6.13;100.00
6028;BME280;3042;43.194;27.646;2023-03-14T02:09:02;102202.69;;;6.19;100.00
6028;BME280;3042;43.194;27.646;2023-03-14T02:11:30;102198.75;;;6.23;100.00
6028;BME280;3042;43.194;27.646;2023-03-14T02:13:57;102103.88;;;5.54;100.00
6028;BME280;3042;43.194;27.646;2023-03-14T02:16:26;102197.03;;;6.13;100.00
6028;BME280;3042;43.194;27.646;2023-03-14T02:18:54;102194.88;;;6.38;100.00
6028;BME280;3042;43.194;27.646;2023-03-14T02:21:27;102200.28;;;6.41;100.00
6028;BME280;3042;43.194;27.646;2023-03-14T02:24:04;102193.34;;;6.40;100.00
6028;BME280;3042;43.194;27.646;2023-03-14T02:26:38;102205.41;;;6.31;99.70
6028;BME280;3042;43.194;27.646;2023-03-14T02:29:08;102207.19;;;6.32;99.76
6028;BME280;3042;43.194;27.646;2023-03-14T02:31:36;102209.38;;;6.17;98.77
6028;BME280;3042;43.194;27.646;2023-03-14T02:34:03;102213.59;;;6.06;99.31
6028;BME280;3042;43.194;27.646;2023-03-14T02:36:31;102203.97;;;5.85;98.75
6028;BME280;3042;43.194;27.646;2023-03-14T02:39:05;102211.38;;;6.01;98.98
6028;BME280;3042;43.194;27.646;2023-03-14T02:41:34;102192.13;;;5.66;98.92
6028;BME280;3042;43.194;27.646;2023-03-14T02:44:01;102179.75;;;5.52;99.07
6028;BME280;3042;43.194;27.646;2023-03-14T02:46:29;102135.91;;;5.49;99.21
6028;BME280;3042;43.194;27.646;2023-03-14T02:49:00;102200.56;;;5.95;98.89
6028;BME280;3042;43.194;27.646;2023-03-14T02:51:28;102184.72;;;5.69;99.89
6028;BME280;3042;43.194;27.646;2023-03-14T02:53:56;102102.69;;;4.82;100.00
6028;BME280;3042;43.194;27.646;2023-03-14T02:56:23;102216.97;;;5.57;100.00
6028;BME280;3042;43.194;27.646;2023-03-14T02:58:50;102204.72;;;5.74;100.00
6028;BME280;3042;43.194;27.646;2023-03-14T03:01:17;102173.25;;;5.56;100.00
6028;BME280;3042;43.194;27.646;2023-03-14T03:03:45;102166.13;;;5.72;100.00
6028;BME280;3042;43.194;27.646;2023-03-14T03:06:12;102097.59;;;5.11;100.00
6028;BME280;3042;43.194;27.646;2023-03-14T03:08:39;102015.03;;;4.65;100.00
6028;BME280;3042;43.194;27.646;2023-03-14T03:11:06;102205.25;;;5.80;100.00
6028;BME280;3042;43.194;27.646;2023-03-14T03:13:34;102182.94;;;5.79;100.00
6028;BME280;3042;43.194;27.646;2023-03-14T03:16:01;102200.13;;;5.80;100.00
6028;BME280;3042;43.194;27.646;2023-03-14T03:18:28;102190.66;;;5.89;100.00
6028;BME280;3042;43.194;27.646;2023-03-14T03:20:59;102166.59;;;5.58;100.00
6028;BME280;3042;43.194;27.646;2023-03-14T03:23:26;102179.34;;;5.18;100.00
6028;BME280;3042;43.194;27.646;2023-03-14T03:25:54;102195.63;;;5.19;100.00
6028;BME280;3042;43.194;27.646;2023-03-14T03:28:21;102193.88;;;5.28;100.00
6028;BME280;3042;43.194;27.646;2023-03-14T03:30:48;102189.72;;;5.39;100.00
6028;BME280;3042;43.194;27.646;2023-03-14T03:33:15;102178.94;;;5.43;100.00
6028;BME280;3042;43.194;27.646;2023-03-14T03:35:43;102176.22;;;5.60;100.00
6028;BME280;3042;43.194;27.646;2023-03-14T03:38:12;102159.09;;;5.80;100.00
6028;BME280;3042;43.194;27.646;2023-03-14T03:40:39;102167.41;;;5.67;100.00
6028;BME280;3042;43.194;27.646;2023-03-14T03:43:06;102165.75;;;5.78;100.00
6028;BME280;3042;43.194;27.646;2023-03-14T03:45:34;102166.16;;;5.82;100.00
6028;BME280;3042;43.194;27.646;2023-03-14T03:48:01;102159.88;;;5.89;100.00
6028;BME280;3042;43.194;27.646;2023-03-14T03:50:28;102149.63;;;5.89;100.00
6028;BME280;3042;43.194;27.646;2023-03-14T03:52:55;102164.44;;;5.62;100.00
6028;BME280;3042;43.194;27.646;2023-03-14T03:55:23;101960.16;;;4.72;100.00
6028;BME280;3042;43.194;27.646;2023-03-14T03:57:51;102165.97;;;5.70;100.00
6028;BME280;3042;43.194;27.646;2023-03-14T04:00:19;102171.59;;;5.66;100.00
6028;BME280;3042;43.194;27.646;2023-03-14T04:02:46;102068.88;;;5.05;100.00
6028;BME280;3042;43.194;27.646;2023-03-14T04:05:13;102169.81;;;5.65;100.00
6028;BME280;3042;43.194;27.646;2023-03-14T04:07:40;102165.19;;;5.61;100.00
6028;BME280;3042;43.194;27.646;2023-03-14T04:10:08;102161.88;;;5.72;100.00
6028;BME280;3042;43.194;27.646;2023-03-14T04:12:36;101908.34;;;4.16;100.00
6028;BME280;3042;43.194;27.646;2023-03-14T04:15:04;102174.50;;;5.50;100.00
6028;BME280;3042;43.194;27.646;2023-03-14T04:17:31;102171.88;;;5.40;100.00
6028;BME280;3042;43.194;27.646;2023-03-14T04:19:58;102173.69;;;5.41;100.00
6028;BME280;3042;43.194;27.646;2023-03-14T04:22:25;102171.03;;;5.50;100.00
6028;BME280;3042;43.194;27.646;2023-03-14T04:24:52;102181.03;;;5.47;100.00
6028;BME280;3042;43.194;27.646;2023-03-14T04:27:19;102183.06;;;5.41;100.00
6028;BME280;3042;43.194;27.646;2023-03-14T04:29:47;102180.16;;;5.27;100.00
6028;BME280;3042;43.194;27.646;2023-03-14T04:32:14;102173.97;;;5.15;100.00
6028;BME280;3042;43.194;27.646;2023-03-14T04:34:41;102185.16;;;5.07;100.00
6028;BME280;3042;43.194;27.646;2023-03-14T04:37:08;102188.91;;;5.11;100.00
6028;BME280;3042;43.194;27.646;2023-03-14T04:39:35;102182.31;;;5.23;100.00
6028;BME280;3042;43.194;27.646;2023-03-14T04:42:02;102178.97;;;5.24;100.00
6028;BME280;3042;43.194;27.646;2023-03-14T04:44:29;101976.28;;;4.23;100.00
6028;BME280;3042;43.194;27.646;2023-03-14T04:46:58;102153.63;;;5.56;100.00
6028;BME280;3042;43.194;27.646;2023-03-14T04:49:25;102013.66;;;4.69;100.00
6028;BME280;3042;43.194;27.646;2023-03-14T04:51:52;102147.22;;;5.61;100.00
6028;BME280;3042;43.194;27.646;2023-03-14T04:54:19;102151.38;;;5.69;100.00
6028;BME280;3042;43.194;27.646;2023-03-14T04:56:46;102141.53;;;5.84;100.00
6028;BME280;3042;43.194;27.646;2023-03-14T04:59:13;102142.00;;;6.09;100.00
6028;BME280;3042;43.194;27.646;2023-03-14T05:01:40;102090.78;;;6.11;100.00
6028;BME280;3042;43.194;27.646;2023-03-14T05:04:08;102117.22;;;6.61;100.00
6028;BME280;3042;43.194;27.646;2023-03-14T05:06:35;102124.41;;;6.65;100.00
6028;BME280;3042;43.194;27.646;2023-03-14T05:09:03;102019.72;;;6.20;100.00
6028;BME280;3042;43.194;27.646;2023-03-14T05:11:30;102116.38;;;7.03;100.00
6028;BME280;3042;43.194;27.646;2023-03-14T05:13:58;102121.06;;;7.19;100.00
6028;BME280;3042;43.194;27.646;2023-03-14T05:16:25;102120.50;;;7.33;98.88
6028;BME280;3042;43.194;27.646;2023-03-14T05:18:52;102010.19;;;6.82;97.52
6028;BME280;3042;43.194;27.646;2023-03-14T05:21:20;102125.44;;;7.20;95.44
6028;BME280;3042;43.194;27.646;2023-03-14T05:23:47;102104.72;;;6.76;97.01
6028;BME280;3042;43.194;27.646;2023-03-14T05:26:14;102138.03;;;7.17;96.25
6028;BME280;3042;43.194;27.646;2023-03-14T05:28:42;101952.06;;;6.40;95.94
6028;BME280;3042;43.194;27.646;2023-03-14T05:31:09;102110.47;;;7.80;95.24
6028;BME280;3042;43.194;27.646;2023-03-14T05:33:36;101957.38;;;7.52;94.36
6028;BME280;3042;43.194;27.646;2023-03-14T05:36:04;102077.72;;;8.23;94.65
6028;BME280;3042;43.194;27.646;2023-03-14T05:38:33;102012.09;;;8.18;95.49
6028;BME280;3042;43.194;27.646;2023-03-14T05:41:00;102106.25;;;8.60;94.91
6028;BME280;3042;43.194;27.646;2023-03-14T05:43:27;102053.84;;;8.72;95.77
6028;BME280;3042;43.194;27.646;2023-03-14T05:45:54;102068.75;;;9.36;96.81
6028;BME280;3042;43.194;27.646;2023-03-14T05:48:21;102066.81;;;9.82;97.39
6028;BME280;3042;43.194;27.646;2023-03-14T05:50:53;102057.72;;;10.26;95.94
6028;BME280;3042;43.194;27.646;2023-03-14T05:53:20;102061.25;;;10.53;94.05
6028;BME280;3042;43.194;27.646;2023-03-14T05:55:51;102040.75;;;11.09;93.12
6028;BME280;3042;43.194;27.646;2023-03-14T05:58:18;102038.53;;;11.29;92.08
6028;BME280;3042;43.194;27.646;2023-03-14T06:00:45;102037.22;;;11.64;91.95
6028;BME280;3042;43.194;27.646;2023-03-14T06:03:12;101979.16;;;11.45;90.58
6028;BME280;3042;43.194;27.646;2023-03-14T06:05:39;102039.28;;;11.97;90.21
6028;BME280;3042;43.194;27.646;2023-03-14T06:08:06;102026.63;;;12.32;90.34
6028;BME280;3042;43.194;27.646;2023-03-14T06:10:34;102019.25;;;12.69;89.16
6028;BME280;3042;43.194;27.646;2023-03-14T06:13:03;102022.22;;;12.92;88.49
6028;BME280;3042;43.194;27.646;2023-03-14T06:15:30;102026.88;;;12.97;86.69
6028;BME280;3042;43.194;27.646;2023-03-14T06:17:58;101916.47;;;12.40;85.87
6028;BME280;3042;43.194;27.646;2023-03-14T06:20:25;102013.19;;;13.16;86.56
6028;BME280;3042;43.194;27.646;2023-03-14T06:22:52;101883.09;;;12.15;85.19
6028;BME280;3042;43.194;27.646;2023-03-14T06:25:19;102021.72;;;13.14;84.81
6028;BME280;3042;43.194;27.646;2023-03-14T06:27:46;102025.66;;;13.07;85.32
6028;BME280;3042;43.194;27.646;2023-03-14T06:30:15;102014.03;;;13.32;85.70
6028;BME280;3042;43.194;27.646;2023-03-14T06:32:43;102020.28;;;13.35;84.76
6028;BME280;3042;43.194;27.646;2023-03-14T06:35:10;101999.25;;;13.80;85.75
6028;BME280;3042;43.194;27.646;2023-03-14T06:37:37;101894.31;;;13.42;85.02
6028;BME280;3042;43.194;27.646;2023-03-14T06:40:05;101973.22;;;14.48;84.63
6028;BME280;3042;43.194;27.646;2023-03-14T06:42:32;101972.19;;;14.81;83.89
6028;BME280;3042;43.194;27.646;2023-03-14T06:45:00;101943.09;;;15.28;82.52
6028;BME280;3042;43.194;27.646;2023-03-14T06:47:28;101934.81;;;15.97;81.96
6028;BME280;3042;43.194;27.646;2023-03-14T06:49:55;101935.22;;;16.29;80.31
6028;BME280;3042;43.194;27.646;2023-03-14T06:52:22;101929.41;;;16.36;77.54
6028;BME280;3042;43.194;27.646;2023-03-14T06:54:49;101933.44;;;16.28;75.60
6028;BME280;3042;43.194;27.646;2023-03-14T06:57:16;101935.22;;;16.29;75.41
6028;BME280;3042;43.194;27.646;2023-03-14T06:59:43;101938.88;;;16.11;76.80
6028;BME280;3042;43.194;27.646;2023-03-14T07:02:10;101950.84;;;16.06;77.19
6028;BME280;3042;43.194;27.646;2023-03-14T07:04:39;101953.81;;;15.73;77.04
6028;BME280;3042;43.194;27.646;2023-03-14T07:07:06;101920.84;;;15.15;77.71
6028;BME280;3042;43.194;27.646;2023-03-14T07:09:33;101977.91;;;14.91;79.18
6028;BME280;3042;43.194;27.646;2023-03-14T07:12:00;101987.88;;;14.82;80.38
6028;BME280;3042;43.194;27.646;2023-03-14T07:14:28;101995.94;;;14.88;80.19
6028;BME280;3042;43.194;27.646;2023-03-14T07:16:57;101829.41;;;14.13;80.93
6028;BME280;3042;43.194;27.646;2023-03-14T07:19:24;101936.72;;;14.65;81.78
6028;BME280;3042;43.194;27.646;2023-03-14T07:21:52;101965.56;;;15.07;82.67
6028;BME280;3042;43.194;27.646;2023-03-14T07:24:20;101965.69;;;15.10;82.17
6028;BME280;3042;43.194;27.646;2023-03-14T07:26:47;101968.84;;;15.03;82.24
6028;BME280;3042;43.194;27.646;2023-03-14T07:29:14;101964.78;;;15.08;82.52
6028;BME280;3042;43.194;27.646;2023-03-14T07:31:41;101952.41;;;15.43;82.61
6028;BME280;3042;43.194;27.646;2023-03-14T07:34:08;101867.59;;;15.28;82.93
6028;BME280;3042;43.194;27.646;2023-03-14T07:36:35;101939.81;;;15.71;82.61
6028;BME280;3042;43.194;27.646;2023-03-14T07:39:03;101919.66;;;16.09;83.25
6028;BME280;3042;43.194;27.646;2023-03-14T07:41:31;101747.94;;;15.31;83.08
6028;BME280;3042;43.194;27.646;2023-03-14T07:43:58;101907.41;;;16.29;83.18
6028;BME280;3042;43.194;27.646;2023-03-14T07:46:25;101899.19;;;16.41;83.16
6028;BME280;3042;43.194;27.646;2023-03-14T07:48:52;101888.75;;;16.63;83.08
6028;BME280;3042;43.194;27.646;2023-03-14T07:51:19;101835.97;;;16.48;82.69
6028;BME280;3042;43.194;27.646;2023-03-14T07:53:46;101830.03;;;16.52;81.38
6028;BME280;3042;43.194;27.646;2023-03-14T07:56:15;101775.38;;;16.55;81.69
6028;BME280;3042;43.194;27.646;2023-03-14T07:58:42;101872.22;;;17.09;82.16
6028;BME280;3042;43.194;27.646;2023-03-14T08:01:10;101865.03;;;17.28;82.22
6028;BME280;3042;43.194;27.646;2023-03-14T08:03:37;101823.69;;;17.16;81.56
6028;BME280;3042;43.194;27.646;2023-03-14T08:06:04;101857.88;;;17.48;80.61
6028;BME280;3042;43.194;27.646;2023-03-14T08:08:31;101844.22;;;17.57;79.71
6028;BME280;3042;43.194;27.646;2023-03-14T08:11:02;101844.53;;;17.66;79.18
6028;BME280;3042;43.194;27.646;2023-03-14T08:13:31;101773.78;;;17.34;78.90
6028;BME280;3042;43.194;27.646;2023-03-14T08:15:58;101812.56;;;17.22;77.59
6028;BME280;3042;43.194;27.646;2023-03-14T08:18:25;101847.78;;;17.59;77.87
6028;BME280;3042;43.194;27.646;2023-03-14T08:20:52;101846.75;;;17.54;77.25
6028;BME280;3042;43.194;27.646;2023-03-14T08:23:19;101788.81;;;17.41;76.96
6028;BME280;3042;43.194;27.646;2023-03-14T08:25:48;101813.31;;;17.98;77.15
6028;BME280;3042;43.194;27.646;2023-03-14T08:28:15;101721.38;;;17.29;76.38
6028;BME280;3042;43.194;27.646;2023-03-14T08:30:44;101817.53;;;17.67;75.04
6028;BME280;3042;43.194;27.646;2023-03-14T08:33:11;101822.59;;;17.61;73.51
6028;BME280;3042;43.194;27.646;2023-03-14T08:35:38;101833.56;;;17.25;70.39
6028;BME280;3042;43.194;27.646;2023-03-14T08:38:05;101840.97;;;17.13;71.47
6028;BME280;3042;43.194;27.646;2023-03-14T08:40:32;101834.59;;;17.04;73.19
6028;BME280;3042;43.194;27.646;2023-03-14T08:42:59;101833.25;;;17.16;72.21
6028;BME280;3042;43.194;27.646;2023-03-14T08:45:26;101841.03;;;16.90;70.32
6028;BME280;3042;43.194;27.646;2023-03-14T08:47:55;101800.28;;;17.45;70.52
6028;BME280;3042;43.194;27.646;2023-03-14T08:50:22;101816.72;;;16.91;67.83
6028;BME280;3042;43.194;27.646;2023-03-14T08:52:49;101817.88;;;16.53;65.45
6028;BME280;3042;43.194;27.646;2023-03-14T08:55:16;101827.09;;;16.43;64.88
6028;BME280;3042;43.194;27.646;2023-03-14T08:57:43;101702.72;;;16.18;64.52
6028;BME280;3042;43.194;27.646;2023-03-14T09:00:11;101808.81;;;16.90;65.49
6028;BME280;3042;43.194;27.646;2023-03-14T09:02:40;101800.34;;;16.95;63.92
6028;BME280;3042;43.194;27.646;2023-03-14T09:05:10;101738.31;;;16.88;62.39
6028;BME280;3042;43.194;27.646;2023-03-14T09:07:37;101717.41;;;16.88;60.88
6028;BME280;3042;43.194;27.646;2023-03-14T09:10:05;101785.91;;;17.06;59.83
6028;BME280;3042;43.194;27.646;2023-03-14T09:12:33;101796.38;;;16.82;60.46
6028;BME280;3042;43.194;27.646;2023-03-14T09:15:00;101782.38;;;17.04;62.18
6028;BME280;3042;43.194;27.646;2023-03-14T09:17:27;101765.31;;;17.16;57.64
6028;BME280;3042;43.194;27.646;2023-03-14T09:19:54;101744.53;;;17.44;59.37
6028;BME280;3042;43.194;27.646;2023-03-14T09:22:22;101748.25;;;17.52;61.97
6028;BME280;3042;43.194;27.646;2023-03-14T09:24:49;101713.91;;;17.40;61.77
6028;BME280;3042;43.194;27.646;2023-03-14T09:27:16;101604.91;;;17.07;60.98
6028;BME280;3042;43.194;27.646;2023-03-14T09:29:43;101733.59;;;17.58;57.94
6028;BME280;3042;43.194;27.646;2023-03-14T09:32:10;101664.25;;;17.40;56.09
6028;BME280;3042;43.194;27.646;2023-03-14T09:34:37;101698.97;;;17.65;54.89
6028;BME280;3042;43.194;27.646;2023-03-14T09:37:04;101716.47;;;17.66;56.20
6028;BME280;3042;43.194;27.646;2023-03-14T09:39:33;101715.31;;;17.58;55.88
6028;BME280;3042;43.194;27.646;2023-03-14T09:42:04;101705.28;;;17.99;58.30
6028;BME280;3042;43.194;27.646;2023-03-14T09:44:33;101688.34;;;18.16;58.44
6028;BME280;3042;43.194;27.646;2023-03-14T09:47:05;101617.59;;;17.81;56.62
6028;BME280;3042;43.194;27.646;2023-03-14T09:49:34;101639.38;;;18.44;57.18
6028;BME280;3042;43.194;27.646;2023-03-14T09:52:06;101604.16;;;17.99;57.79
6028;BME280;3042;43.194;27.646;2023-03-14T09:54:38;101669.78;;;18.39;57.40
6028;BME280;3042;43.194;27.646;2023-03-14T09:57:09;101627.38;;;17.88;57.87
6028;BME280;3042;43.194;27.646;2023-03-14T09:59:38;101684.00;;;17.86;55.26
6028;BME280;3042;43.194;27.646;2023-03-14T10:02:14;101408.88;;;16.73;55.93
6028;BME280;3042;43.194;27.646;2023-03-14T10:04:42;101668.06;;;18.09;55.51
6028;BME280;3042;43.194;27.646;2023-03-14T10:07:13;101639.91;;;18.00;54.09
6028;BME280;3042;43.194;27.646;2023-03-14T10:09:45;101659.59;;;18.18;55.79
6028;BME280;3042;43.194;27.646;2023-03-14T10:12:14;101647.16;;;18.41;56.49
6028;BME280;3042;43.194;27.646;2023-03-14T10:14:47;101629.41;;;18.62;57.69
6028;BME280;3042;43.194;27.646;2023-03-14T10:17:17;101603.25;;;18.98;59.03
6028;BME280;3042;43.194;27.646;2023-03-14T10:19:53;101607.13;;;19.14;63.01
6028;BME280;3042;43.194;27.646;2023-03-14T10:22:21;101608.25;;;18.88;57.43
6028;BME280;3042;43.194;27.646;2023-03-14T10:24:53;101627.59;;;18.60;55.80
6028;BME280;3042;43.194;27.646;2023-03-14T10:27:27;101618.88;;;18.61;55.74
6028;BME280;3042;43.194;27.646;2023-03-14T10:29:56;101602.25;;;18.93;56.67
6028;BME280;3042;43.194;27.646;2023-03-14T10:32:28;101587.91;;;19.14;56.59
6028;BME280;3042;43.194;27.646;2023-03-14T10:35:22;101585.03;;;19.03;57.54
6028;BME280;3042;43.194;27.646;2023-03-14T10:37:53;101586.09;;;19.11;58.99
6028;BME280;3042;43.194;27.646;2023-03-14T10:40:27;101565.34;;;19.21;59.61
6028;BME280;3042;43.194;27.646;2023-03-14T10:42:55;101531.88;;;18.71;60.97
6028;BME280;3042;43.194;27.646;2023-03-14T10:45:31;101532.75;;;18.71;55.98
6028;BME280;3042;43.194;27.646;2023-03-14T10:48:05;101553.44;;;19.35;55.68
6028;BME280;3042;43.194;27.646;2023-03-14T10:50:33;101267.75;;;17.30;57.37
6028;BME280;3042;43.194;27.646;2023-03-14T10:53:02;101547.63;;;19.10;54.93
6028;BME280;3042;43.194;27.646;2023-03-14T10:55:42;101409.47;;;18.61;53.51
6028;BME280;3042;43.194;27.646;2023-03-14T10:58:22;101521.94;;;19.32;56.22
6028;BME280;3042;43.194;27.646;2023-03-14T11:00:58;101524.09;;;19.12;57.36
6028;BME280;3042;43.194;27.646;2023-03-14T11:03:29;101485.66;;;19.53;56.43
6028;BME280;3042;43.194;27.646;2023-03-14T11:06:04;101266.41;;;17.81;55.02
6028;BME280;3042;43.194;27.646;2023-03-14T11:08:36;101398.78;;;18.51;51.41
6028;BME280;3042;43.194;27.646;2023-03-14T11:11:14;101482.72;;;19.38;53.30
6028;BME280;3042;43.194;27.646;2023-03-14T11:13:51;101486.53;;;19.11;54.07
6028;BME280;3042;43.194;27.646;2023-03-14T11:16:26;101455.03;;;19.51;53.83
6028;BME280;3042;43.194;27.646;2023-03-14T11:19:03;101454.25;;;19.56;53.31
6028;BME280;3042;43.194;27.646;2023-03-14T11:21:38;101457.25;;;19.31;52.05
6028;BME280;3042;43.194;27.646;2023-03-14T11:24:24;101462.09;;;19.12;51.99
6028;BME280;3042;43.194;27.646;2023-03-14T11:26:59;101440.69;;;19.33;49.79
6028;BME280;3042;43.194;27.646;2023-03-14T11:29:35;101422.69;;;19.50;52.28
6028;BME280;3042;43.194;27.646;2023-03-14T11:32:12;101430.00;;;19.23;49.31
6028;BME280;3042;43.194;27.646;2023-03-14T11:34:45;101391.97;;;19.90;49.64
6028;BME280;3042;43.194;27.646;2023-03-14T11:37:22;101395.03;;;19.68;50.82
6028;BME280;3042;43.194;27.646;2023-03-14T11:39:58;101392.63;;;19.80;52.01
6028;BME280;3042;43.194;27.646;2023-03-14T11:42:29;101201.63;;;18.51;51.83
6028;BME280;3042;43.194;27.646;2023-03-14T11:45:00;101379.63;;;19.86;52.84
6028;BME280;3042;43.194;27.646;2023-03-14T11:47:30;101278.28;;;19.38;50.59
6028;BME280;3042;43.194;27.646;2023-03-14T11:50:03;101365.56;;;19.81;51.02
6028;BME280;3042;43.194;27.646;2023-03-14T11:52:35;101336.53;;;19.70;52.20
6028;BME280;3042;43.194;27.646;2023-03-14T11:55:10;101347.91;;;19.71;53.11
6028;BME280;3042;43.194;27.646;2023-03-14T11:57:41;101342.97;;;19.89;50.84
6028;BME280;3042;43.194;27.646;2023-03-14T12:00:15;101336.88;;;19.90;50.89
6028;BME280;3042;43.194;27.646;2023-03-14T12:02:48;101289.59;;;19.87;53.09
6028;BME280;3042;43.194;27.646;2023-03-14T12:11:27;101331.25;;;19.69;52.74
6028;BME280;3042;43.194;27.646;2023-03-14T12:13:56;101303.22;;;20.22;50.89
6028;BME280;3042;43.194;27.646;2023-03-14T12:16:32;101308.09;;;19.96;51.92
6028;BME280;3042;43.194;27.646;2023-03-14T12:19:33;101307.28;;;20.00;52.40
6028;BME280;3042;43.194;27.646;2023-03-14T12:22:26;101286.56;;;20.20;50.64
6028;BME280;3042;43.194;27.646;2023-03-14T12:24:57;101294.28;;;20.07;52.89
6028;BME280;3042;43.194;27.646;2023-03-14T12:27:46;101072.53;;;19.04;52.08
6028;BME280;3042;43.194;27.646;2023-03-14T12:30:28;101293.91;;;19.82;50.91
6028;BME280;3042;43.194;27.646;2023-03-14T12:33:26;101208.03;;;19.69;51.10
6028;BME280;3042;43.194;27.646;2023-03-14T12:35:59;101216.59;;;19.58;51.69
6028;BME280;3042;43.194;27.646;2023-03-14T12:38:37;101284.53;;;19.99;51.06
6028;BME280;3042;43.194;27.646;2023-03-14T12:41:14;101274.00;;;19.96;50.59
6028;BME280;3042;43.194;27.646;2023-03-14T12:43:42;101096.53;;;18.76;50.17
6028;BME280;3042;43.194;27.646;2023-03-14T12:46:21;101227.56;;;19.89;50.09
6028;BME280;3042;43.194;27.646;2023-03-14T12:48:49;101269.38;;;19.80;48.56
6028;BME280;3042;43.194;27.646;2023-03-14T12:51:19;101232.00;;;19.37;49.32
6028;BME280;3042;43.194;27.646;2023-03-14T12:54:04;100915.00;;;17.68;50.46
6028;BME280;3042;43.194;27.646;2023-03-14T12:59:46;101197.66;;;19.22;49.21
6028;BME280;3042;43.194;27.646;2023-03-14T13:02:24;101258.69;;;19.68;47.49
6028;BME280;3042;43.194;27.646;2023-03-14T13:05:04;101000.47;;;18.19;48.43
6028;BME280;3042;43.194;27.646;2023-03-14T13:08:03;101245.72;;;19.75;48.53
6028;BME280;3042;43.194;27.646;2023-03-14T13:10:38;101252.72;;;19.78;48.42
6028;BME280;3042;43.194;27.646;2023-03-14T13:13:15;101027.59;;;18.24;48.32
6028;BME280;3042;43.194;27.646;2023-03-14T13:15:46;101009.44;;;18.35;49.94
6028;BME280;3042;43.194;27.646;2023-03-14T13:18:16;101234.56;;;19.90;48.88
6028;BME280;3042;43.194;27.646;2023-03-14T13:20:46;101237.88;;;19.77;48.67
6028;BME280;3042;43.194;27.646;2023-03-14T13:23:20;101250.50;;;19.48;48.46